createdAt,value
2018-04-18T00:01:19.032Z,4.80
2018-04-18T00:03:52.780Z,4.22
2018-04-18T00:06:26.559Z,4.35
2018-04-18T00:09:00.284Z,4.72
2018-04-18T00:11:34.067Z,4.68
2018-04-18T00:14:07.806Z,4.60
2018-04-18T00:16:41.426Z,4.50
2018-04-18T00:19:15.933Z,4.90
2018-04-18T00:21:49.618Z,5.47
2018-04-18T00:24:23.474Z,5.20
2018-04-18T00:26:57.291Z,5.07
2018-04-18T00:29:30.976Z,5.32
2018-04-18T00:32:04.766Z,5.95
2018-04-18T00:34:38.524Z,5.50
2018-04-18T00:37:12.320Z,5.25
2018-04-18T00:39:46.046Z,4.90
2018-04-18T00:42:19.857Z,4.75
2018-04-18T00:44:53.490Z,5.12
2018-04-18T00:47:27.296Z,5.45
2018-04-18T00:50:01.062Z,4.70
2018-04-18T00:52:34.779Z,6.90
2018-04-18T00:55:08.561Z,6.30
2018-04-18T00:57:42.203Z,5.82
2018-04-18T01:00:15.976Z,5.30
2018-04-18T01:02:49.949Z,5.62
2018-04-18T01:05:23.760Z,5.70
2018-04-18T01:07:58.341Z,5.85
2018-04-18T01:10:32.125Z,5.45
2018-04-18T01:13:06.772Z,5.60
2018-04-18T01:15:40.370Z,6.20
2018-04-18T01:18:14.209Z,5.82
2018-04-18T01:20:48.115Z,5.85
2018-04-18T01:23:22.705Z,5.05
2018-04-18T01:25:56.664Z,6.18
2018-04-18T01:28:30.468Z,5.90
2018-04-18T01:31:04.288Z,6.32
2018-04-18T01:33:37.996Z,5.93
2018-04-18T01:36:11.870Z,6.40
2018-04-18T01:38:45.658Z,6.45
2018-04-18T01:41:19.411Z,5.40
2018-04-18T01:43:53.248Z,6.80
2018-04-18T01:46:27.066Z,5.30
2018-04-18T01:49:12.637Z,5.70
2018-04-18T01:51:47.143Z,4.45
2018-04-18T01:54:21.670Z,5.20
2018-04-18T01:56:55.380Z,5.75
2018-04-18T01:59:29.201Z,4.50
2018-04-18T02:02:02.869Z,5.47
2018-04-18T02:04:36.580Z,5.65
2018-04-18T02:07:10.292Z,5.30
2018-04-18T02:09:44.095Z,5.65
2018-04-18T02:12:18.723Z,5.68
2018-04-18T02:14:52.488Z,5.00
2018-04-18T02:17:27.054Z,5.30
2018-04-18T02:20:01.583Z,5.00
2018-04-18T02:22:35.343Z,5.20
2018-04-18T02:25:09.105Z,4.95
2018-04-18T02:27:43.500Z,5.20
2018-04-18T02:30:17.353Z,6.60
2018-04-18T02:32:51.942Z,12.85
2018-04-18T02:35:25.733Z,6.97
2018-04-18T02:37:59.329Z,6.32
2018-04-18T02:40:33.860Z,5.87
2018-04-18T02:43:07.536Z,5.57
2018-04-18T02:45:41.291Z,5.90
2018-04-18T02:48:14.958Z,5.45
2018-04-18T02:50:48.707Z,5.37
2018-04-18T02:53:23.202Z,5.62
2018-04-18T02:55:56.944Z,6.30
2018-04-18T02:58:30.707Z,6.15
2018-04-18T03:01:04.457Z,5.40
2018-04-18T03:03:39.158Z,5.85
2018-04-18T03:06:12.989Z,5.80
2018-04-18T03:08:47.566Z,6.22
2018-04-18T03:11:21.978Z,6.82
2018-04-18T03:13:55.854Z,5.82
2018-04-18T03:16:29.578Z,6.80
2018-04-18T03:19:03.360Z,6.07
2018-04-18T03:21:36.888Z,5.55
2018-04-18T03:24:10.530Z,5.37
2018-04-18T03:26:45.140Z,5.90
2018-04-18T03:29:18.921Z,5.70
2018-04-18T03:31:52.695Z,6.05
2018-04-18T03:34:26.416Z,6.10
2018-04-18T03:37:00.197Z,6.68
2018-04-18T03:39:33.875Z,6.20
2018-04-18T03:42:07.691Z,6.00
2018-04-18T03:44:41.464Z,5.80
2018-04-18T03:47:15.310Z,5.72
2018-04-18T03:49:49.210Z,7.55
2018-04-18T03:52:23.009Z,5.50
2018-04-18T03:54:56.817Z,5.80
2018-04-18T03:57:31.307Z,6.15
2018-04-18T04:00:05.012Z,5.95
2018-04-18T04:02:38.883Z,6.82
2018-04-18T04:05:12.614Z,6.22
2018-04-18T04:07:46.340Z,7.22
2018-04-18T04:10:20.112Z,5.62
2018-04-18T04:12:53.874Z,5.70
2018-04-18T04:15:27.636Z,6.85
2018-04-18T04:18:13.497Z,23.70
2018-04-18T04:20:59.244Z,17.90
2018-04-18T04:23:45.927Z,8.02
2018-04-18T04:26:19.723Z,6.68
2018-04-18T04:28:53.569Z,6.65
2018-04-18T04:31:27.312Z,10.20
2018-04-18T04:34:01.231Z,11.23
2018-04-18T04:36:34.826Z,14.98
2018-04-18T04:39:08.751Z,15.15
2018-04-18T04:41:42.530Z,10.07
2018-04-18T04:44:16.275Z,4.53
2018-04-18T04:46:50.758Z,4.55
2018-04-18T04:49:25.309Z,6.72
2018-04-18T04:51:59.052Z,6.70
2018-04-18T04:54:33.432Z,18.08
2018-04-18T04:57:07.123Z,9.75
2018-04-18T04:59:40.980Z,6.30
2018-04-18T05:02:14.705Z,7.05
2018-04-18T05:04:48.480Z,7.30
2018-04-18T05:07:23.092Z,5.93
2018-04-18T05:09:56.935Z,5.60
2018-04-18T05:12:30.659Z,5.25
2018-04-18T05:15:04.564Z,5.55
2018-04-18T05:17:38.290Z,5.82
2018-04-18T05:20:12.028Z,5.60
2018-04-18T05:22:45.835Z,6.35
2018-04-18T05:25:19.642Z,5.35
2018-04-18T05:27:54.219Z,6.22
2018-04-18T05:30:28.011Z,5.50
2018-04-18T05:33:01.831Z,5.20
2018-04-18T05:35:35.591Z,6.30
2018-04-18T05:38:09.359Z,5.72
2018-04-18T05:40:43.131Z,6.25
2018-04-18T05:43:16.841Z,5.65
2018-04-18T05:45:50.640Z,5.70
2018-04-18T05:48:24.372Z,5.70
2018-04-18T05:50:58.262Z,5.35
2018-04-18T05:53:32.816Z,5.40
2018-04-18T05:56:07.319Z,5.78
2018-04-18T05:58:41.111Z,6.43
2018-04-18T06:01:15.672Z,5.35
2018-04-18T06:03:49.410Z,5.55
2018-04-18T06:06:23.227Z,5.03
2018-04-18T06:08:57.674Z,5.53
2018-04-18T06:11:31.418Z,5.10
2018-04-18T06:14:05.217Z,6.12
2018-04-18T06:16:39.003Z,5.43
2018-04-18T06:19:12.813Z,4.57
2018-04-18T06:21:47.254Z,4.68
2018-04-18T06:24:20.950Z,5.05
2018-04-18T06:26:55.552Z,4.60
2018-04-18T06:29:29.275Z,4.80
2018-04-18T06:32:03.060Z,5.10
2018-04-18T06:34:37.563Z,5.03
2018-04-18T06:37:11.300Z,4.72
2018-04-18T06:39:44.995Z,4.03
2018-04-18T06:42:18.771Z,4.72
2018-04-18T06:44:52.581Z,5.00
2018-04-18T06:47:26.329Z,4.65
2018-04-18T06:50:00.128Z,4.55
2018-04-18T06:52:33.966Z,7.60
2018-04-18T06:55:08.524Z,5.20
2018-04-18T06:57:42.344Z,5.50
2018-04-18T07:00:16.064Z,5.65
2018-04-18T07:02:49.892Z,5.65
2018-04-18T07:05:24.480Z,5.18
2018-04-18T07:07:58.249Z,5.20
2018-04-18T07:10:32.118Z,4.70
2018-04-18T07:13:05.862Z,4.93
2018-04-18T07:15:39.608Z,4.50
2018-04-18T07:18:13.436Z,4.75
2018-04-18T07:20:47.207Z,4.15
2018-04-18T07:23:20.944Z,4.53
2018-04-18T07:25:54.735Z,4.90
2018-04-18T07:28:28.514Z,4.53
2018-04-18T07:31:02.335Z,5.05
2018-04-18T07:33:36.065Z,4.95
2018-04-18T07:36:09.713Z,5.10
2018-04-18T07:38:43.544Z,4.72
2018-04-18T07:41:17.268Z,4.70
2018-04-18T07:43:51.103Z,4.97
2018-04-18T07:46:24.859Z,4.68
2018-04-18T07:48:58.634Z,4.30
2018-04-18T07:51:32.487Z,4.35
2018-04-18T07:54:06.344Z,4.10
2018-04-18T07:56:40.894Z,3.97
2018-04-18T07:59:14.677Z,4.18
2018-04-18T08:01:48.421Z,3.47
2018-04-18T08:04:23.056Z,3.55
2018-04-18T08:06:56.775Z,3.42
2018-04-18T08:09:30.430Z,3.45
2018-04-18T08:12:04.178Z,3.80
2018-04-18T08:14:38.837Z,3.53
2018-04-18T08:17:12.636Z,3.53
2018-04-18T08:19:46.407Z,3.65
2018-04-18T08:22:20.312Z,3.20
2018-04-18T08:24:54.067Z,3.42
2018-04-18T08:27:27.783Z,4.05
2018-04-18T08:30:02.426Z,3.35
2018-04-18T08:32:36.206Z,3.05
2018-04-18T08:35:09.845Z,3.78
2018-04-18T08:37:43.700Z,3.37
2018-04-18T08:40:17.421Z,3.42
2018-04-18T08:42:51.293Z,2.72
2018-04-18T08:45:25.038Z,3.53
2018-04-18T08:47:58.885Z,2.90
2018-04-18T08:50:33.493Z,2.70
2018-04-18T08:53:07.309Z,3.00
2018-04-18T08:55:41.090Z,2.72
2018-04-18T08:58:14.879Z,2.97
2018-04-18T09:00:49.478Z,3.05
2018-04-18T09:03:24.043Z,2.53
2018-04-18T09:05:57.848Z,2.28
2018-04-18T09:08:32.369Z,2.28
2018-04-18T09:11:06.988Z,2.60
2018-04-18T09:13:40.759Z,2.40
2018-04-18T09:16:15.397Z,2.50
2018-04-18T09:18:49.187Z,1.95
2018-04-18T09:21:23.009Z,2.78
2018-04-18T09:23:56.886Z,2.28
2018-04-18T09:26:30.661Z,2.05
2018-04-18T09:29:04.486Z,2.25
2018-04-18T09:31:38.274Z,2.30
2018-04-18T09:34:12.028Z,2.58
2018-04-18T09:36:45.839Z,2.53
2018-04-18T09:39:19.603Z,2.55
2018-04-18T09:41:54.198Z,2.40
2018-04-18T09:44:28.650Z,2.60
2018-04-18T09:47:02.506Z,2.10
2018-04-18T09:49:36.381Z,2.95
2018-04-18T09:52:10.045Z,2.35
2018-04-18T09:54:43.821Z,2.00
2018-04-18T09:57:17.531Z,2.20
2018-04-18T09:59:51.324Z,2.25
2018-04-18T10:02:29.137Z,2.45
2018-04-18T10:05:07.441Z,2.62
2018-04-18T10:07:41.178Z,2.75
2018-04-18T10:10:15.824Z,2.10
2018-04-18T10:12:49.546Z,2.20
2018-04-18T10:15:24.112Z,2.53
2018-04-18T10:17:57.737Z,2.83
2018-04-18T10:20:31.531Z,3.03
2018-04-18T10:23:05.245Z,2.75
2018-04-18T10:25:38.985Z,2.80
2018-04-18T10:28:13.543Z,2.20
2018-04-18T10:30:48.056Z,2.60
2018-04-18T10:33:21.765Z,2.50
2018-04-18T10:35:55.415Z,2.15
2018-04-18T10:38:29.190Z,2.30
2018-04-18T10:41:02.924Z,2.30
2018-04-18T10:43:37.495Z,2.33
2018-04-18T10:46:11.152Z,4.10
2018-04-18T10:48:45.741Z,2.25
2018-04-18T10:51:19.536Z,2.60
2018-04-18T10:53:53.262Z,2.75
2018-04-18T10:56:27.833Z,2.70
2018-04-18T10:59:02.285Z,2.75
2018-04-18T11:01:36.058Z,2.92
2018-04-18T11:04:13.475Z,2.95
2018-04-18T11:06:47.994Z,2.70
2018-04-18T11:09:21.812Z,3.15
2018-04-18T11:11:56.344Z,3.00
2018-04-18T11:14:30.153Z,2.50
2018-04-18T11:17:03.959Z,2.37
2018-04-18T11:19:38.553Z,2.40
2018-04-18T11:22:13.065Z,2.62
2018-04-18T11:24:46.679Z,2.55
2018-04-18T11:27:20.486Z,3.33
2018-04-18T11:29:54.218Z,3.20
2018-04-18T11:32:28.009Z,3.42
2018-04-18T11:35:02.427Z,3.25
2018-04-18T11:37:36.196Z,2.80
2018-04-18T11:40:09.835Z,3.05
2018-04-18T11:42:43.688Z,3.22
2018-04-18T11:45:17.573Z,3.15
2018-04-18T11:47:54.835Z,2.65
2018-04-18T11:50:28.726Z,4.68
2018-04-18T11:53:02.409Z,3.20
2018-04-18T11:55:36.179Z,3.25
2018-04-18T11:58:10.003Z,3.00
2018-04-18T12:00:43.788Z,2.90
2018-04-18T12:03:18.468Z,3.53
2018-04-18T12:05:52.291Z,3.85
2018-04-18T12:08:26.839Z,3.50
2018-04-18T12:11:00.614Z,3.92
2018-04-18T12:13:34.418Z,3.12
2018-04-18T12:16:08.042Z,2.70
2018-04-18T12:18:41.852Z,4.00
2018-04-18T12:21:16.444Z,3.25
2018-04-18T12:23:50.968Z,3.50
2018-04-18T12:26:24.634Z,4.60
2018-04-18T12:28:58.361Z,3.50
2018-04-18T12:31:32.248Z,3.30
2018-04-18T12:34:05.989Z,3.37
2018-04-18T12:36:39.685Z,3.53
2018-04-18T12:39:13.337Z,4.30
2018-04-18T12:41:47.805Z,3.70
2018-04-18T12:44:21.490Z,4.30
2018-04-18T12:46:55.309Z,3.10
2018-04-18T12:49:29.179Z,2.95
2018-04-18T12:52:03.641Z,3.25
2018-04-18T12:54:37.379Z,4.07
2018-04-18T12:57:11.194Z,3.17
2018-04-18T12:59:45.762Z,2.70
2018-04-18T13:02:19.537Z,3.53
2018-04-18T13:04:53.183Z,2.72
2018-04-18T13:07:26.795Z,2.62
2018-04-18T13:10:00.617Z,2.53
2018-04-18T13:12:34.303Z,2.50
2018-04-18T13:15:08.115Z,3.00
2018-04-18T13:17:42.704Z,2.78
2018-04-18T13:20:16.492Z,2.78
2018-04-18T13:22:51.073Z,3.15
2018-04-18T13:25:25.619Z,2.65
2018-04-18T13:27:59.604Z,2.87
2018-04-18T13:30:33.469Z,2.95
2018-04-18T13:33:07.239Z,2.95
2018-04-18T13:35:41.804Z,3.15
2018-04-18T13:38:15.579Z,3.35
2018-04-18T13:40:49.374Z,2.70
2018-04-18T13:43:23.103Z,3.15
2018-04-18T13:45:56.915Z,2.40
2018-04-18T13:48:30.757Z,2.30
2018-04-18T13:51:04.570Z,2.50
2018-04-18T13:53:38.405Z,2.47
2018-04-18T13:56:13.070Z,3.47
2018-04-18T13:58:46.892Z,2.90
2018-04-18T14:01:21.410Z,3.08
2018-04-18T14:03:55.177Z,3.20
2018-04-18T14:06:28.856Z,2.45
2018-04-18T14:09:03.446Z,3.05
2018-04-18T14:11:37.127Z,2.30
2018-04-18T14:14:11.484Z,4.25
2018-04-18T14:16:45.258Z,3.50
2018-04-18T14:19:19.052Z,2.87
2018-04-18T14:21:52.720Z,2.25
2018-04-18T14:24:27.194Z,2.83
2018-04-18T14:27:00.906Z,2.50
2018-04-18T14:29:35.443Z,2.90
2018-04-18T14:32:09.191Z,2.50
2018-04-18T14:34:42.853Z,2.92
2018-04-18T14:37:16.509Z,2.35
2018-04-18T14:39:50.291Z,2.60
2018-04-18T14:42:24.061Z,2.55
2018-04-18T14:44:57.692Z,2.80
2018-04-18T14:47:32.171Z,2.72
2018-04-18T14:50:05.892Z,2.80
2018-04-18T14:52:39.687Z,3.00
2018-04-18T14:55:14.324Z,2.95
2018-04-18T14:57:48.835Z,2.70
2018-04-18T15:00:22.540Z,2.60
2018-04-18T15:02:57.037Z,2.72
2018-04-18T15:05:30.735Z,2.70
2018-04-18T15:08:04.503Z,3.05
2018-04-18T15:10:38.861Z,3.10
2018-04-18T15:13:12.849Z,2.70
2018-04-18T15:15:46.498Z,3.60
2018-04-18T15:18:20.279Z,2.60
2018-04-18T15:20:54.812Z,3.03
2018-04-18T15:23:29.365Z,2.72
2018-04-18T15:26:03.954Z,2.97
2018-04-18T15:28:37.670Z,2.70
2018-04-18T15:31:11.345Z,3.87
2018-04-18T15:33:45.278Z,2.33
2018-04-18T15:36:19.601Z,2.70
2018-04-18T15:38:53.439Z,2.60
2018-04-18T15:41:27.188Z,2.87
2018-04-18T15:44:01.006Z,2.65
2018-04-18T15:46:34.733Z,2.60
2018-04-18T15:49:08.533Z,2.85
2018-04-18T15:51:42.309Z,2.45
2018-04-18T15:54:16.839Z,4.12
2018-04-18T15:56:51.374Z,3.15
2018-04-18T15:59:25.141Z,2.90
2018-04-18T16:01:58.749Z,2.80
2018-04-18T16:04:33.140Z,3.30
2018-04-18T16:07:06.944Z,3.05
2018-04-18T16:09:40.798Z,2.80
2018-04-18T16:12:14.519Z,2.45
2018-04-18T16:14:49.130Z,2.70
2018-04-18T16:17:23.630Z,2.53
2018-04-18T16:19:57.400Z,2.60
2018-04-18T16:22:31.897Z,3.15
2018-04-18T16:25:05.611Z,3.15
2018-04-18T16:27:39.279Z,3.22
2018-04-18T16:30:24.960Z,2.30
2018-04-18T16:33:01.518Z,3.47
2018-04-18T16:35:36.981Z,2.35
2018-04-18T16:38:10.635Z,3.30
2018-04-18T16:40:45.324Z,3.12
2018-04-18T16:43:18.928Z,3.30
2018-04-18T16:45:52.695Z,2.97
2018-04-18T16:48:26.268Z,3.87
2018-04-18T16:51:00.750Z,3.08
2018-04-18T16:53:34.427Z,3.20
2018-04-18T16:56:08.146Z,2.90
2018-04-18T16:58:41.844Z,3.17
2018-04-18T17:01:15.636Z,4.10
2018-04-18T17:03:49.359Z,3.08
2018-04-18T17:06:23.027Z,3.17
2018-04-18T17:08:56.644Z,3.33
2018-04-18T17:11:31.163Z,2.92
2018-04-18T17:14:04.763Z,3.90
2018-04-18T17:16:38.609Z,3.58
2018-04-18T17:19:12.439Z,3.97
2018-04-18T17:21:46.246Z,4.10
2018-04-18T17:24:20.811Z,4.20
2018-04-18T17:26:54.530Z,4.70
2018-04-18T17:29:28.147Z,4.90
2018-04-18T17:32:01.892Z,4.68
2018-04-18T17:34:35.741Z,5.20
2018-04-18T17:37:10.251Z,4.25
2018-04-18T17:39:44.081Z,4.22
2018-04-18T17:42:18.646Z,4.90
2018-04-18T17:44:53.103Z,4.82
2018-04-18T17:47:26.745Z,6.07
2018-04-18T17:50:00.323Z,4.65
2018-04-18T17:52:34.049Z,8.88
2018-04-18T17:55:07.700Z,5.93
2018-04-18T17:57:41.428Z,6.32
2018-04-18T18:00:15.206Z,5.22
2018-04-18T18:02:48.892Z,5.37
2018-04-18T18:05:22.546Z,5.65
2018-04-18T18:07:56.856Z,6.35
2018-04-18T18:10:30.548Z,6.50
2018-04-18T18:13:05.078Z,5.95
2018-04-18T18:15:38.880Z,6.40
2018-04-18T18:18:13.402Z,6.20
2018-04-18T18:20:47.148Z,5.68
2018-04-18T18:23:20.931Z,6.53
2018-04-18T18:25:54.600Z,6.75
2018-04-18T18:28:28.428Z,7.00
2018-04-18T18:31:02.145Z,7.28
2018-04-18T18:33:35.844Z,6.25
2018-04-18T18:36:10.252Z,6.45
2018-04-18T18:38:44.761Z,6.18
2018-04-18T18:41:19.186Z,6.12
2018-04-18T18:43:53.033Z,6.47
2018-04-18T18:46:26.718Z,6.07
2018-04-18T18:49:00.478Z,5.85
2018-04-18T18:51:34.303Z,5.90
2018-04-18T18:54:08.039Z,6.00
2018-04-18T18:56:41.800Z,6.07
2018-04-18T18:59:16.388Z,5.35
2018-04-18T19:01:49.935Z,5.93
2018-04-18T19:04:23.563Z,5.90
2018-04-18T19:06:57.324Z,5.85
2018-04-18T19:09:31.074Z,5.40
2018-04-18T19:12:04.831Z,6.18
2018-04-18T19:14:38.477Z,6.05
2018-04-18T19:17:12.020Z,5.20
2018-04-18T19:19:45.607Z,5.50
2018-04-18T19:22:19.270Z,5.78
2018-04-18T19:24:52.913Z,5.45
2018-04-18T19:27:26.497Z,5.57
2018-04-18T19:30:00.773Z,4.93
2018-04-18T19:32:34.399Z,5.62
2018-04-18T19:35:08.055Z,5.60
2018-04-18T19:37:41.612Z,5.60
2018-04-18T19:40:15.206Z,5.55
2018-04-18T19:42:48.836Z,4.82
2018-04-18T19:45:23.301Z,4.65
2018-04-18T19:47:56.827Z,5.65
2018-04-18T19:50:31.158Z,5.37
2018-04-18T19:53:04.899Z,5.70
2018-04-18T19:55:38.582Z,5.30
2018-04-18T19:58:12.094Z,5.05
2018-04-18T20:00:45.680Z,5.70
2018-04-18T20:03:19.253Z,5.07
2018-04-18T20:05:52.970Z,5.32
2018-04-18T20:08:26.584Z,5.18
2018-04-18T20:11:00.199Z,5.70
2018-04-18T20:13:33.702Z,5.05
2018-04-18T20:16:07.264Z,5.30
2018-04-18T20:18:40.852Z,5.35
2018-04-18T20:21:14.388Z,5.30
2018-04-18T20:23:47.961Z,6.07
2018-04-18T20:26:21.534Z,5.20
2018-04-18T20:28:55.172Z,5.18
2018-04-18T20:31:28.768Z,5.72
2018-04-18T20:34:02.362Z,6.53
2018-04-18T20:36:37.698Z,6.05
2018-04-18T20:39:11.412Z,5.78
2018-04-18T20:41:53.793Z,5.60
2018-04-18T20:44:27.518Z,6.18
2018-04-18T20:47:01.096Z,8.23
2018-04-18T20:49:35.462Z,7.10
2018-04-18T20:52:09.189Z,8.48
2018-04-18T20:54:43.660Z,5.80
2018-04-18T20:57:17.359Z,5.75
2018-04-18T20:59:50.940Z,6.03
2018-04-18T21:02:25.492Z,6.00
2018-04-18T21:04:59.176Z,5.87
2018-04-18T21:07:32.826Z,5.65
2018-04-18T21:10:06.394Z,5.45
2018-04-18T21:12:39.939Z,5.80
2018-04-18T21:15:13.507Z,5.47
2018-04-18T21:17:47.056Z,6.03
2018-04-18T21:20:20.693Z,6.07
2018-04-18T21:22:54.306Z,6.03
2018-04-18T21:25:27.864Z,6.50
2018-04-18T21:28:01.495Z,5.85
2018-04-18T21:30:35.102Z,6.25
2018-04-18T21:33:08.710Z,5.82
2018-04-18T21:35:42.180Z,6.12
2018-04-18T21:38:15.704Z,5.80
2018-04-18T21:40:49.403Z,6.05
2018-04-18T21:43:23.023Z,6.43
2018-04-18T21:45:56.613Z,5.82
2018-04-18T21:48:30.327Z,6.05
2018-04-18T21:51:04.054Z,6.12
2018-04-18T21:53:38.429Z,5.90
2018-04-18T21:56:12.938Z,5.82
2018-04-18T21:58:46.673Z,6.22
2018-04-18T22:01:21.073Z,5.93
2018-04-18T22:03:54.745Z,5.90
2018-04-18T22:06:29.090Z,5.72
2018-04-18T22:09:02.608Z,6.62
2018-04-18T22:11:36.190Z,6.00
2018-04-18T22:14:10.513Z,6.90
2018-04-18T22:16:44.240Z,6.87
2018-04-18T22:19:18.528Z,6.75
2018-04-18T22:21:52.214Z,7.10
2018-04-18T22:24:25.762Z,7.30
2018-04-18T22:26:59.455Z,6.10
2018-04-18T22:29:32.998Z,6.30
2018-04-18T22:32:06.573Z,6.25
2018-04-18T22:34:40.152Z,5.60
2018-04-18T22:37:13.711Z,6.00
2018-04-18T22:39:47.264Z,6.20
2018-04-18T22:42:20.860Z,6.57
2018-04-18T22:44:54.415Z,5.85
2018-04-18T22:47:27.974Z,5.57
2018-04-18T22:50:01.514Z,5.45
2018-04-18T22:52:35.137Z,10.07
2018-04-18T22:55:08.664Z,5.07
2018-04-18T22:57:42.235Z,6.30
2018-04-18T23:00:28.479Z,5.68
2018-04-18T23:03:02.032Z,5.75
2018-04-18T23:05:35.604Z,6.72
2018-04-18T23:08:09.230Z,5.95
2018-04-18T23:10:42.958Z,5.43
2018-04-18T23:13:17.268Z,5.97
2018-04-18T23:15:50.956Z,6.00
2018-04-18T23:18:24.519Z,6.40
2018-04-18T23:20:58.060Z,6.05
2018-04-18T23:23:31.652Z,6.50
2018-04-18T23:26:05.392Z,6.20
2018-04-18T23:28:38.941Z,6.22
2018-04-18T23:31:13.363Z,6.55
2018-04-18T23:33:46.965Z,5.93
2018-04-18T23:36:21.316Z,6.40
2018-04-18T23:38:55.709Z,5.47
2018-04-18T23:41:29.404Z,6.07
2018-04-18T23:44:03.723Z,6.20
2018-04-18T23:46:42.375Z,7.10
2018-04-18T23:49:16.069Z,6.05
2018-04-18T23:51:49.664Z,6.35
2018-04-18T23:54:23.252Z,5.95
2018-04-18T23:56:57.180Z,5.75
2018-04-18T23:59:31.672Z,5.30
